Time;durP1;ratioP1;P1;durP2;ratioP2;P2;SDS_P1;SDS_P2;PMS_P1;PMS_P2;Temp;Humidity;BMP_temperature;BMP_pressure;BME280_temperature;BME280_humidity;BME280_pressure;Samples;Min_cycle;Max_cycle;Signal;HPM_P1;HPM_P2
2023/04/01 00:00:49;;;;;;;5.47;4.07;;;;;;;;;;4961873;29;20015;-79
2023/04/01 00:03:37;;;;;;;5.18;4.05;;;;;;;;;;4961326;29;20027;-78
2023/04/01 00:06:06;;;;;;;6.82;4.40;;;;;;;;;;4952832;29;20103;-79
2023/04/01 00:08:32;;;;;;;7.28;4.50;;;;;;;;;;4961208;29;20039;-79
2023/04/01 00:10:58;;;;;;;6.78;4.28;;;;;;;;;;4949859;29;20106;-79
2023/04/01 00:13:26;;;;;;;6.90;4.70;;;;;;;;;;4961288;28;20035;-79
2023/04/01 00:15:52;;;;;;;5.70;3.88;;;;;;;;;;4960624;28;20027;-79
2023/04/01 00:18:18;;;;;;;6.90;4.85;;;;;;;;;;4959841;29;20063;-79
2023/04/01 00:20:45;;;;;;;6.43;4.70;;;;;;;;;;4959319;29;20032;-78
2023/04/01 00:23:11;;;;;;;6.00;4.53;;;;;;;;;;4959095;29;20659;-78
2023/04/01 00:25:37;;;;;;;5.60;4.30;;;;;;;;;;4959308;29;20027;-78
2023/04/01 00:28:03;;;;;;;5.85;3.75;;;;;;;;;;4959604;28;20703;-79
2023/04/01 00:30:29;;;;;;;6.32;4.28;;;;;;;;;;4942201;29;20028;-78
2023/04/01 00:32:55;;;;;;;6.45;4.65;;;;;;;;;;4959976;29;20059;-79
2023/04/01 00:35:22;;;;;;;6.82;4.47;;;;;;;;;;4959547;29;20031;-78
2023/04/01 00:37:49;;;;;;;7.28;4.70;;;;;;;;;;4959283;29;20029;-78
2023/04/01 00:40:31;;;;;;;5.45;4.38;;;;;;;;;;4942786;29;20023;-79
2023/04/01 00:42:57;;;;;;;5.63;4.07;;;;;;;;;;4961201;29;20019;-78
2023/04/01 00:45:25;;;;;;;6.25;4.35;;;;;;;;;;4942830;29;20462;-79
2023/04/01 00:47:54;;;;;;;6.65;4.40;;;;;;;;;;4943024;29;20024;-78
2023/04/01 00:50:22;;;;;;;5.95;4.35;;;;;;;;;;4960752;29;20027;-79
2023/04/01 00:52:48;;;;;;;9.88;4.90;;;;;;;;;;4959479;29;20058;-79
2023/04/01 00:55:15;;;;;;;6.28;4.65;;;;;;;;;;4943419;29;20031;-79
2023/04/01 00:57:42;;;;;;;9.20;5.32;;;;;;;;;;4954335;28;20023;-79
2023/04/01 01:00:10;;;;;;;4.75;3.50;;;;;;;;;;4975585;28;20106;-79
2023/04/01 01:02:36;;;;;;;5.15;3.58;;;;;;;;;;4958216;28;20034;-78
2023/04/01 01:05:03;;;;;;;6.05;3.55;;;;;;;;;;4962123;29;20086;-78
2023/04/01 01:07:31;;;;;;;7.05;4.93;;;;;;;;;;4965800;28;20042;-78
2023/04/01 01:10:00;;;;;;;6.82;4.95;;;;;;;;;;4981988;28;20030;-78
2023/04/01 01:12:41;;;;;;;5.32;3.72;;;;;;;;;;4954429;29;20035;-79
2023/04/01 01:15:07;;;;;;;4.65;3.42;;;;;;;;;;4964260;28;20028;-79
2023/04/01 01:17:51;;;;;;;6.85;4.65;;;;;;;;;;4964918;29;20027;-78
2023/04/01 01:20:17;;;;;;;8.15;5.38;;;;;;;;;;4964650;29;20038;-78
2023/04/01 01:23:01;;;;;;;6.68;4.97;;;;;;;;;;4947681;29;20043;-79
2023/04/01 01:25:30;;;;;;;6.07;4.38;;;;;;;;;;4946382;29;20024;-79
2023/04/01 01:28:16;;;;;;;7.15;4.40;;;;;;;;;;4946572;29;20039;-79
2023/04/01 01:31:04;;;;;;;7.60;4.57;;;;;;;;;;4944735;28;20028;-78
2023/04/01 01:33:33;;;;;;;7.72;4.88;;;;;;;;;;4961314;29;20130;-78
2023/04/01 01:36:00;;;;;;;7.85;5.13;;;;;;;;;;4943756;29;20026;-78
2023/04/01 01:38:28;;;;;;;6.97;5.00;;;;;;;;;;4963384;29;20031;-79
2023/04/01 01:40:57;;;;;;;5.25;3.15;;;;;;;;;;4964699;29;20524;-79
2023/04/01 01:43:25;;;;;;;10.38;3.50;;;;;;;;;;4964955;29;20032;-79
2023/04/01 01:45:54;;;;;;;5.75;4.53;;;;;;;;;;4946160;29;20027;-79
2023/04/01 01:48:20;;;;;;;6.57;3.95;;;;;;;;;;4963800;29;20032;-79
2023/04/01 01:50:47;;;;;;;6.22;4.25;;;;;;;;;;4964016;29;20024;-79
2023/04/01 01:53:14;;;;;;;7.55;5.22;;;;;;;;;;4963773;29;20078;-79
2023/04/01 01:55:45;;;;;;;5.68;4.15;;;;;;;;;;4951765;29;20082;-79
2023/04/01 01:58:11;;;;;;;6.18;4.30;;;;;;;;;;4964926;29;20024;-79
2023/04/01 02:00:37;;;;;;;8.13;4.95;;;;;;;;;;4963539;29;20042;-79
2023/04/01 02:03:04;;;;;;;6.43;4.63;;;;;;;;;;4963973;29;20031;-79
2023/04/01 02:05:31;;;;;;;7.65;4.97;;;;;;;;;;4964636;29;20020;-79
2023/04/01 02:08:05;;;;;;;6.75;4.10;;;;;;;;;;4964124;29;20030;-79
2023/04/01 02:10:33;;;;;;;6.63;4.45;;;;;;;;;;4964477;29;20058;-79
2023/04/01 02:13:02;;;;;;;6.85;4.68;;;;;;;;;;4965238;29;20046;-79
2023/04/01 02:15:30;;;;;;;5.63;3.97;;;;;;;;;;4962620;28;20027;-79
2023/04/01 02:17:56;;;;;;;6.97;4.68;;;;;;;;;;4945213;29;20118;-79
2023/04/01 02:20:23;;;;;;;5.85;3.88;;;;;;;;;;4945398;29;20062;-79
2023/04/01 02:22:51;;;;;;;7.78;4.90;;;;;;;;;;4945014;29;20110;-79
2023/04/01 02:25:23;;;;;;;4.50;3.10;;;;;;;;;;4944108;29;20034;-79
2023/04/01 02:27:49;;;;;;;9.98;4.70;;;;;;;;;;4960751;29;20415;-79
2023/04/01 02:30:16;;;;;;;6.80;4.63;;;;;;;;;;4962630;29;20030;-79
2023/04/01 02:32:42;;;;;;;6.20;4.07;;;;;;;;;;4961003;29;20118;-78
2023/04/01 02:35:11;;;;;;;7.20;4.35;;;;;;;;;;4961343;29;20158;-78
2023/04/01 02:37:37;;;;;;;3.90;2.90;;;;;;;;;;4963736;29;20440;-79
2023/04/01 02:40:06;;;;;;;4.95;3.45;;;;;;;;;;4964707;29;20114;-79
2023/04/01 02:42:32;;;;;;;7.05;4.18;;;;;;;;;;4966112;29;20023;-79
2023/04/01 02:44:58;;;;;;;5.82;4.03;;;;;;;;;;4965709;29;20065;-79
2023/04/01 02:47:24;;;;;;;8.57;5.05;;;;;;;;;;4964165;29;20023;-79
2023/04/01 02:49:50;;;;;;;5.13;3.35;;;;;;;;;;4934955;29;20056;-79
2023/04/01 02:52:16;;;;;;;7.38;4.28;;;;;;;;;;4929924;29;20064;-79
2023/04/01 02:54:42;;;;;;;6.93;4.20;;;;;;;;;;4925271;29;20024;-79
2023/04/01 02:57:08;;;;;;;5.32;2.92;;;;;;;;;;4918102;29;20092;-79
2023/04/01 02:59:52;;;;;;;8.05;5.50;;;;;;;;;;4903918;29;20160;-79
2023/04/01 03:02:19;;;;;;;7.78;5.38;;;;;;;;;;4921951;29;20020;-79
2023/04/01 03:04:45;;;;;;;4.85;3.15;;;;;;;;;;4923401;29;20036;-79
2023/04/01 03:07:11;;;;;;;9.25;5.43;;;;;;;;;;4925254;29;20024;-79
2023/04/01 03:09:38;;;;;;;7.88;3.83;;;;;;;;;;4921260;29;20056;-79
2023/04/01 03:12:04;;;;;;;9.15;5.75;;;;;;;;;;4916949;29;20392;-79
2023/04/01 03:14:30;;;;;;;7.43;4.45;;;;;;;;;;4905429;29;20029;-79
2023/04/01 03:16:56;;;;;;;10.32;6.05;;;;;;;;;;4915118;29;20029;-79
2023/04/01 03:19:22;;;;;;;9.20;5.78;;;;;;;;;;4928038;29;20028;-79
2023/04/01 03:21:48;;;;;;;9.55;5.20;;;;;;;;;;4927941;29;20055;-80
2023/04/01 03:24:14;;;;;;;9.50;5.15;;;;;;;;;;4927566;29;20028;-79
2023/04/01 03:26:40;;;;;;;9.75;5.40;;;;;;;;;;4928180;29;20031;-80
2023/04/01 03:29:06;;;;;;;8.65;5.57;;;;;;;;;;4927749;29;20033;-80
2023/04/01 03:31:32;;;;;;;9.90;4.95;;;;;;;;;;4928067;29;20032;-80
2023/04/01 03:33:58;;;;;;;9.15;5.13;;;;;;;;;;4921943;29;20399;-80
2023/04/01 03:36:24;;;;;;;11.00;6.05;;;;;;;;;;4918386;29;20032;-80
2023/04/01 03:38:52;;;;;;;8.70;5.53;;;;;;;;;;4913060;29;20028;-80
2023/04/01 03:41:18;;;;;;;7.60;4.53;;;;;;;;;;4914907;29;20032;-80
2023/04/01 03:43:44;;;;;;;9.75;5.88;;;;;;;;;;4914089;29;20028;-80
2023/04/01 03:46:10;;;;;;;8.98;5.28;;;;;;;;;;4925261;29;20039;-80
2023/04/01 03:48:36;;;;;;;7.85;4.80;;;;;;;;;;4927597;29;20025;-80
2023/04/01 03:51:06;;;;;;;8.52;5.43;;;;;;;;;;4942227;29;20058;-81
2023/04/01 03:53:32;;;;;;;9.57;6.00;;;;;;;;;;4962849;29;20039;-81
2023/04/01 03:55:58;;;;;;;8.75;5.40;;;;;;;;;;4961192;29;20035;-81
2023/04/01 03:58:25;;;;;;;6.68;3.95;;;;;;;;;;4961764;29;20367;-81
2023/04/01 04:00:50;;;;;;;11.70;5.43;;;;;;;;;;4943612;29;20038;-80
2023/04/01 04:03:16;;;;;;;9.10;5.90;;;;;;;;;;4943778;29;20031;-80
2023/04/01 04:05:49;;;;;;;9.75;6.53;;;;;;;;;;4953631;29;20478;-80
2023/04/01 04:08:16;;;;;;;7.75;4.70;;;;;;;;;;4926221;29;20028;-80
2023/04/01 04:10:42;;;;;;;8.95;5.20;;;;;;;;;;4955046;29;20024;-80
2023/04/01 04:13:08;;;;;;;9.57;5.22;;;;;;;;;;4923996;29;20032;-80
2023/04/01 04:15:34;;;;;;;7.45;5.18;;;;;;;;;;4937481;29;20390;-80
2023/04/01 04:18:00;;;;;;;12.20;5.82;;;;;;;;;;4943730;29;20031;-80
2023/04/01 04:20:26;;;;;;;7.68;5.30;;;;;;;;;;4960322;28;20027;-80
2023/04/01 04:22:52;;;;;;;9.75;5.75;;;;;;;;;;4943845;29;20493;-80
2023/04/01 04:25:18;;;;;;;9.40;5.25;;;;;;;;;;4943422;29;20024;-80
2023/04/01 04:27:44;;;;;;;8.25;5.13;;;;;;;;;;4942286;29;20061;-80
2023/04/01 04:30:13;;;;;;;9.25;5.50;;;;;;;;;;4943481;29;20054;-80
2023/04/01 04:32:40;;;;;;;8.98;5.32;;;;;;;;;;4934109;29;20040;-80
2023/04/01 04:35:06;;;;;;;10.95;6.25;;;;;;;;;;4924052;29;20024;-80
2023/04/01 04:37:32;;;;;;;10.43;5.15;;;;;;;;;;4949771;28;20031;-80
2023/04/01 04:39:58;;;;;;;6.28;4.38;;;;;;;;;;4963741;29;20597;-80
2023/04/01 04:42:24;;;;;;;7.20;4.22;;;;;;;;;;4946580;29;20031;-80
2023/04/01 04:44:50;;;;;;;9.27;5.05;;;;;;;;;;4962242;29;20034;-80
2023/04/01 04:47:16;;;;;;;8.50;4.88;;;;;;;;;;4944422;29;20031;-80
2023/04/01 04:49:42;;;;;;;8.50;4.45;;;;;;;;;;4960233;29;20023;-80
2023/04/01 04:52:08;;;;;;;9.75;5.35;;;;;;;;;;4921679;29;20107;-80
2023/04/01 04:54:34;;;;;;;7.45;4.00;;;;;;;;;;4923016;29;20039;-80
2023/04/01 04:57:00;;;;;;;7.85;5.22;;;;;;;;;;4922550;29;20028;-80
2023/04/01 04:59:26;;;;;;;9.88;5.65;;;;;;;;;;4922094;29;20064;-80
2023/04/01 05:01:52;;;;;;;10.90;5.60;;;;;;;;;;4925895;29;20049;-80
2023/04/01 05:04:18;;;;;;;9.15;4.88;;;;;;;;;;4922905;29;20120;-80
2023/04/01 05:06:44;;;;;;;13.20;6.57;;;;;;;;;;4941053;29;20027;-80
2023/04/01 05:09:10;;;;;;;11.88;6.28;;;;;;;;;;4942957;29;20028;-80
2023/04/01 05:11:36;;;;;;;9.85;5.85;;;;;;;;;;4942048;29;20034;-80
2023/04/01 05:14:18;;;;;;;9.90;6.07;;;;;;;;;;4942279;29;20031;-80
2023/04/01 05:16:44;;;;;;;6.80;4.43;;;;;;;;;;4941168;29;20027;-80
2023/04/01 05:19:10;;;;;;;12.88;6.70;;;;;;;;;;4939520;29;20023;-79
2023/04/01 05:21:36;;;;;;;12.40;6.95;;;;;;;;;;4939818;29;20382;-80
2023/04/01 05:24:02;;;;;;;12.68;6.75;;;;;;;;;;4937787;29;20551;-80
2023/04/01 05:26:28;;;;;;;11.70;6.53;;;;;;;;;;4924668;29;20032;-80
2023/04/01 05:28:54;;;;;;;14.32;7.15;;;;;;;;;;4941371;29;20027;-81
2023/04/01 05:31:20;;;;;;;14.13;6.93;;;;;;;;;;4941507;29;20023;-80
2023/04/01 05:33:46;;;;;;;9.90;6.55;;;;;;;;;;4928679;29;20047;-82
2023/04/01 05:36:14;;;;;;;12.35;6.40;;;;;;;;;;4942162;29;20024;-82
2023/04/01 05:38:42;;;;;;;14.13;8.10;;;;;;;;;;4941636;29;20685;-82
2023/04/01 05:41:08;;;;;;;10.57;6.47;;;;;;;;;;4942896;29;20199;-82
2023/04/01 05:43:36;;;;;;;7.93;4.60;;;;;;;;;;4942679;29;20036;-82
2023/04/01 05:46:02;;;;;;;10.57;6.28;;;;;;;;;;4943991;29;20019;-82
2023/04/01 05:48:28;;;;;;;9.98;6.10;;;;;;;;;;4943077;29;20031;-82
2023/04/01 05:50:54;;;;;;;10.38;5.20;;;;;;;;;;4941471;29;20467;-82
2023/04/01 05:53:20;;;;;;;13.43;6.50;;;;;;;;;;4955757;29;20047;-82
2023/04/01 05:55:46;;;;;;;11.40;5.97;;;;;;;;;;4944599;29;20086;-82
2023/04/01 05:58:43;;;;;;;10.23;5.72;;;;;;;;;;4943064;29;20078;-82
2023/04/01 06:01:10;;;;;;;13.65;7.43;;;;;;;;;;4943389;29;20039;-82
2023/04/01 06:03:37;;;;;;;14.82;6.80;;;;;;;;;;4965560;29;20031;-82
2023/04/01 06:06:03;;;;;;;13.13;7.07;;;;;;;;;;4943123;29;20035;-81
2023/04/01 06:08:32;;;;;;;11.50;7.20;;;;;;;;;;4924967;29;20035;-81
2023/04/01 06:11:01;;;;;;;10.40;5.93;;;;;;;;;;4925282;29;20028;-81
2023/04/01 06:13:27;;;;;;;12.07;6.43;;;;;;;;;;4925210;29;20039;-82
2023/04/01 06:16:12;;;;;;;13.85;7.78;;;;;;;;;;4927460;29;20522;-81
2023/04/01 06:18:50;;;;;;;10.95;6.25;;;;;;;;;;4944085;29;20019;-81
2023/04/01 06:21:32;;;;;;;9.95;5.53;;;;;;;;;;4942543;29;20027;-81
2023/04/01 06:24:05;;;;;;;14.50;8.13;;;;;;;;;;4944189;29;20114;-81
2023/04/01 06:26:38;;;;;;;11.13;7.10;;;;;;;;;;4943714;29;20466;-82
2023/04/01 06:29:23;;;;;;;13.70;7.28;;;;;;;;;;4943877;29;20080;-82
2023/04/01 06:31:58;;;;;;;12.63;7.53;;;;;;;;;;4956630;29;20032;-81
2023/04/01 06:34:43;;;;;;;13.90;7.13;;;;;;;;;;4959908;29;20508;-81
2023/04/01 06:37:30;;;;;;;15.27;8.65;;;;;;;;;;4960357;29;20031;-82
2023/04/01 06:40:15;;;;;;;12.73;7.70;;;;;;;;;;4960438;29;20390;-82
2023/04/01 06:43:02;;;;;;;18.25;9.77;;;;;;;;;;4960822;28;20035;-82
2023/04/01 06:45:46;;;;;;;14.25;7.25;;;;;;;;;;4933111;28;20034;-81
2023/04/01 06:48:31;;;;;;;15.95;7.88;;;;;;;;;;4958437;29;20031;-81
2023/04/01 06:51:15;;;;;;;13.48;7.60;;;;;;;;;;4959345;29;20042;-82
2023/04/01 06:53:41;;;;;;;11.98;7.05;;;;;;;;;;4928941;29;20067;-81
2023/04/01 06:56:13;;;;;;;14.07;7.78;;;;;;;;;;4921179;29;20032;-82
2023/04/01 06:58:42;;;;;;;7.63;5.13;;;;;;;;;;4918641;29;20035;-82
2023/04/01 07:01:11;;;;;;;16.88;7.85;;;;;;;;;;4917900;29;20037;-82
2023/04/01 07:03:39;;;;;;;14.73;8.07;;;;;;;;;;4908283;29;20040;-81
2023/04/01 07:06:06;;;;;;;15.93;7.60;;;;;;;;;;4918400;29;20475;-82
2023/04/01 07:08:36;;;;;;;10.40;5.95;;;;;;;;;;4920520;29;20060;-82
2023/04/01 07:11:03;;;;;;;11.05;5.68;;;;;;;;;;4916681;29;20062;-82
2023/04/01 07:13:31;;;;;;;11.38;6.25;;;;;;;;;;4920700;29;20064;-82
2023/04/01 07:16:15;;;;;;;8.32;3.80;;;;;;;;;;4920199;29;20407;-82
2023/04/01 07:18:51;;;;;;;7.10;4.75;;;;;;;;;;4917284;29;20028;-81
2023/04/01 07:21:29;;;;;;;11.40;6.13;;;;;;;;;;4909769;29;20124;-81
2023/04/01 07:24:00;;;;;;;9.43;5.15;;;;;;;;;;4920268;29;20049;-81
2023/04/01 07:26:26;;;;;;;12.93;7.40;;;;;;;;;;4916493;29;20075;-82
2023/04/01 07:28:53;;;;;;;9.50;5.75;;;;;;;;;;4919973;29;20095;-81
2023/04/01 07:31:30;;;;;;;13.95;6.32;;;;;;;;;;4906678;29;20062;-81
2023/04/01 07:33:56;;;;;;;15.02;6.78;;;;;;;;;;4913400;29;20040;-81
2023/04/01 07:36:31;;;;;;;14.60;7.20;;;;;;;;;;4921913;29;20483;-82
2023/04/01 07:39:06;;;;;;;9.95;5.30;;;;;;;;;;4916447;29;20106;-82
2023/04/01 07:41:35;;;;;;;16.27;8.20;;;;;;;;;;4922398;29;20123;-82
2023/04/01 07:44:13;;;;;;;16.38;8.65;;;;;;;;;;4923009;29;20036;-82
2023/04/01 07:46:39;;;;;;;15.07;7.20;;;;;;;;;;4915219;29;20035;-82
2023/04/01 07:49:09;;;;;;;12.73;6.75;;;;;;;;;;4916075;29;20036;-79
2023/04/01 07:51:41;;;;;;;16.58;8.82;;;;;;;;;;4923041;29;20063;-79
2023/04/01 07:54:11;;;;;;;21.00;8.55;;;;;;;;;;4953761;29;20035;-80
2023/04/01 07:56:48;;;;;;;16.33;7.90;;;;;;;;;;4951647;28;20045;-80
2023/04/01 07:59:23;;;;;;;20.88;10.57;;;;;;;;;;4953671;29;20054;-80
2023/04/01 08:02:11;;;;;;;19.17;8.25;;;;;;;;;;4962132;28;20029;-80
2023/04/01 08:04:52;;;;;;;14.43;6.93;;;;;;;;;;4962572;28;20027;-80
2023/04/01 08:07:20;;;;;;;20.55;8.07;;;;;;;;;;4954678;29;20081;-80
2023/04/01 08:10:05;;;;;;;17.23;7.40;;;;;;;;;;4957164;29;20019;-80
2023/04/01 08:12:37;;;;;;;19.42;8.20;;;;;;;;;;4953596;28;20039;-80
2023/04/01 08:15:04;;;;;;;19.55;9.38;;;;;;;;;;4936758;29;20031;-79
2023/04/01 08:17:44;;;;;;;20.92;10.50;;;;;;;;;;4955003;29;20898;-79
2023/04/01 08:20:13;;;;;;;19.52;8.43;;;;;;;;;;4958426;29;20050;-80
2023/04/01 08:22:44;;;;;;;21.17;8.77;;;;;;;;;;4936807;29;20027;-79
2023/04/01 08:25:23;;;;;;;17.13;8.40;;;;;;;;;;4954858;28;20171;-79
2023/04/01 08:27:51;;;;;;;19.02;7.07;;;;;;;;;;4963189;29;20110;-79
2023/04/01 08:30:20;;;;;;;15.93;7.25;;;;;;;;;;4945690;29;20313;-80
2023/04/01 08:32:50;;;;;;;15.82;6.65;;;;;;;;;;4958415;29;20038;-79
2023/04/01 08:35:16;;;;;;;18.35;7.88;;;;;;;;;;4959596;29;20027;-81
2023/04/01 08:37:43;;;;;;;22.63;9.40;;;;;;;;;;4961167;29;20023;-80
2023/04/01 08:40:12;;;;;;;16.98;7.38;;;;;;;;;;4958259;29;20134;-79
2023/04/01 08:42:57;;;;;;;19.92;8.52;;;;;;;;;;4956354;28;20379;-80
2023/04/01 08:45:34;;;;;;;19.85;8.10;;;;;;;;;;4936956;29;20024;-80
2023/04/01 08:48:35;;;;;;;15.52;6.50;;;;;;;;;;4955814;29;20052;-80
2023/04/01 08:51:10;;;;;;;10.75;5.75;;;;;;;;;;4955062;29;20023;-79
2023/04/01 08:53:54;;;;;;;11.32;6.13;;;;;;;;;;4954865;29;20051;-79
2023/04/01 08:56:26;;;;;;;12.20;4.03;;;;;;;;;;4955275;29;20028;-80
2023/04/01 08:58:55;;;;;;;8.07;4.00;;;;;;;;;;4949570;29;20027;-79
2023/04/01 09:01:43;;;;;;;5.78;3.75;;;;;;;;;;4946962;29;20023;-79
2023/04/01 09:04:15;;;;;;;7.43;3.40;;;;;;;;;;4955145;29;20035;-79
2023/04/01 09:06:41;;;;;;;5.70;3.08;;;;;;;;;;4935749;29;20419;-79
2023/04/01 09:09:21;;;;;;;6.40;2.63;;;;;;;;;;4936340;29;20027;-79
2023/04/01 09:12:11;;;;;;;6.38;2.90;;;;;;;;;;4958905;28;20422;-82
2023/04/01 09:14:37;;;;;;;3.03;2.22;;;;;;;;;;4948949;29;20043;-79
2023/04/01 09:17:18;;;;;;;6.70;2.70;;;;;;;;;;4954780;29;20035;-80
2023/04/01 09:19:44;;;;;;;3.85;2.15;;;;;;;;;;4935643;29;20095;-79
2023/04/01 09:22:25;;;;;;;4.10;2.10;;;;;;;;;;4935643;29;20090;-79
2023/04/01 09:25:13;;;;;;;5.72;2.20;;;;;;;;;;4937115;29;20106;-79
2023/04/01 09:28:00;;;;;;;4.47;2.45;;;;;;;;;;4940272;29;20036;-80
2023/04/01 09:30:33;;;;;;;5.50;2.70;;;;;;;;;;4945999;29;20040;-80
2023/04/01 09:33:21;;;;;;;9.63;2.60;;;;;;;;;;4957487;29;20094;-79
2023/04/01 09:35:56;;;;;;;6.28;2.78;;;;;;;;;;4958051;29;20102;-80
2023/04/01 09:38:41;;;;;;;4.15;2.45;;;;;;;;;;4941112;29;20039;-80
2023/04/01 09:41:12;;;;;;;4.10;2.40;;;;;;;;;;4958095;29;20098;-80
2023/04/01 09:43:50;;;;;;;5.30;2.60;;;;;;;;;;4941692;29;20099;-79
2023/04/01 09:46:39;;;;;;;3.83;2.65;;;;;;;;;;4957619;28;20093;-80
2023/04/01 09:49:05;;;;;;;12.40;3.50;;;;;;;;;;4931415;29;20067;-79
2023/04/01 09:52:01;;;;;;;3.90;2.45;;;;;;;;;;4955854;29;20039;-81
2023/04/01 09:54:33;;;;;;;5.38;2.80;;;;;;;;;;4951839;29;20062;-82
2023/04/01 09:57:09;;;;;;;5.28;2.22;;;;;;;;;;4964300;28;20030;-80
2023/04/01 09:59:35;;;;;;;2.72;1.75;;;;;;;;;;4958876;29;20064;-80
2023/04/01 10:02:07;;;;;;;3.13;1.90;;;;;;;;;;4958461;29;20031;-82
2023/04/01 10:04:42;;;;;;;2.40;1.80;;;;;;;;;;4958090;29;20496;-81
2023/04/01 10:07:27;;;;;;;3.25;2.00;;;;;;;;;;4957979;29;20027;-81
2023/04/01 10:10:08;;;;;;;4.15;2.13;;;;;;;;;;4945533;29;20023;-82
2023/04/01 10:12:35;;;;;;;2.45;1.20;;;;;;;;;;4937515;29;20117;-82
2023/04/01 10:15:01;;;;;;;3.13;1.30;;;;;;;;;;4938417;29;20414;-81
2023/04/01 10:17:50;;;;;;;1.77;1.02;;;;;;;;;;4937944;29;20599;-81
2023/04/01 10:20:25;;;;;;;2.83;1.55;;;;;;;;;;4911593;29;20122;-81
2023/04/01 10:23:15;;;;;;;5.43;1.70;;;;;;;;;;4955698;29;20040;-81
2023/04/01 10:25:41;;;;;;;3.28;2.05;;;;;;;;;;4950705;29;20027;-81
2023/04/01 10:28:15;;;;;;;3.53;2.30;;;;;;;;;;4955114;28;20027;-81
2023/04/01 10:31:00;;;;;;;2.15;1.35;;;;;;;;;;4950433;29;20043;-81
2023/04/01 10:33:25;;;;;;;4.28;2.13;;;;;;;;;;4951878;28;20036;-81
2023/04/01 10:35:55;;;;;;;4.70;2.05;;;;;;;;;;4954879;28;20028;-82
2023/04/01 10:38:28;;;;;;;5.25;2.35;;;;;;;;;;4966138;29;20034;-81
2023/04/01 10:40:54;;;;;;;3.40;1.75;;;;;;;;;;4964119;28;20031;-82
2023/04/01 10:43:32;;;;;;;5.30;1.60;;;;;;;;;;4952456;28;20027;-81
2023/04/01 10:46:15;;;;;;;3.88;1.92;;;;;;;;;;4954922;29;20039;-81
2023/04/01 10:48:48;;;;;;;5.43;2.25;;;;;;;;;;4954737;29;20027;-81
2023/04/01 10:51:22;;;;;;;3.72;1.52;;;;;;;;;;4935125;29;20565;-81
2023/04/01 10:54:00;;;;;;;3.00;1.92;;;;;;;;;;4953528;28;20071;-82
2023/04/01 10:56:33;;;;;;;3.08;1.58;;;;;;;;;;4956557;28;20027;-82
2023/04/01 10:59:05;;;;;;;4.47;2.58;;;;;;;;;;4948552;29;20027;-82
2023/04/01 11:01:55;;;;;;;5.05;1.88;;;;;;;;;;4959705;28;20437;-81
2023/04/01 11:04:24;;;;;;;6.47;2.43;;;;;;;;;;4926564;29;20086;-82
2023/04/01 11:06:53;;;;;;;3.80;1.80;;;;;;;;;;4955007;28;20025;-82
2023/04/01 11:09:45;;;;;;;4.43;2.30;;;;;;;;;;4940289;29;20114;-82
2023/04/01 11:12:26;;;;;;;2.70;2.00;;;;;;;;;;4955620;28;20031;-82
2023/04/01 11:15:04;;;;;;;4.93;1.85;;;;;;;;;;4955118;28;20030;-82
2023/04/01 11:17:33;;;;;;;4.28;1.92;;;;;;;;;;4955247;29;20034;-82
2023/04/01 11:20:05;;;;;;;3.90;1.90;;;;;;;;;;4954341;28;20257;-82
2023/04/01 11:22:49;;;;;;;2.67;1.63;;;;;;;;;;4954317;29;20035;-82
2023/04/01 11:25:18;;;;;;;4.45;1.60;;;;;;;;;;4954565;29;20526;-82
2023/04/01 11:27:44;;;;;;;2.72;1.58;;;;;;;;;;4957022;28;20035;-82
2023/04/01 11:30:19;;;;;;;3.75;2.22;;;;;;;;;;4937455;29;20034;-81
2023/04/01 11:32:51;;;;;;;2.28;1.60;;;;;;;;;;4954446;28;20054;-81
2023/04/01 11:35:35;;;;;;;2.42;1.60;;;;;;;;;;4951309;28;20019;-81
2023/04/01 11:38:18;;;;;;;2.67;1.58;;;;;;;;;;4954240;28;20470;-81
2023/04/01 11:40:53;;;;;;;5.55;2.00;;;;;;;;;;4963032;28;20050;-81
2023/04/01 11:43:38;;;;;;;3.70;1.70;;;;;;;;;;4940297;28;20077;-81
2023/04/01 11:46:11;;;;;;;4.20;2.15;;;;;;;;;;4956497;28;20360;-80
2023/04/01 11:48:52;;;;;;;3.47;1.63;;;;;;;;;;4942739;29;20480;-81
2023/04/01 11:51:18;;;;;;;2.15;1.52;;;;;;;;;;4953094;28;20083;-81
2023/04/01 11:54:03;;;;;;;3.08;1.52;;;;;;;;;;4954363;29;20517;-81
2023/04/01 11:56:38;;;;;;;1.98;1.80;;;;;;;;;;4954927;28;20023;-81
2023/04/01 11:59:10;;;;;;;2.22;1.27;;;;;;;;;;4925745;29;20039;-81
2023/04/01 12:01:45;;;;;;;1.33;1.15;;;;;;;;;;4958624;28;20422;-81
2023/04/01 12:04:24;;;;;;;2.50;1.35;;;;;;;;;;4960088;28;20462;-81
2023/04/01 12:07:09;;;;;;;1.98;1.63;;;;;;;;;;4954002;28;20027;-80
2023/04/01 12:09:57;;;;;;;2.35;1.65;;;;;;;;;;4953499;28;20023;-81
2023/04/01 12:12:42;;;;;;;2.47;1.45;;;;;;;;;;4936702;28;20089;-81
2023/04/01 12:15:21;;;;;;;2.75;1.67;;;;;;;;;;4954814;29;20027;-81
2023/04/01 12:17:52;;;;;;;1.08;0.98;;;;;;;;;;4954003;28;20034;-81
2023/04/01 12:20:30;;;;;;;3.15;1.30;;;;;;;;;;4954320;29;20067;-81
2023/04/01 12:23:15;;;;;;;1.95;1.42;;;;;;;;;;4952997;29;20103;-81
2023/04/01 12:25:50;;;;;;;1.73;1.30;;;;;;;;;;4953463;28;20434;-81
2023/04/01 12:28:23;;;;;;;2.80;1.70;;;;;;;;;;4949403;29;20449;-81
2023/04/01 12:30:52;;;;;;;3.92;1.50;;;;;;;;;;4955561;28;20023;-81
2023/04/01 12:33:33;;;;;;;2.22;1.50;;;;;;;;;;4936352;28;20511;-81
2023/04/01 12:36:02;;;;;;;3.45;1.35;;;;;;;;;;4953714;28;20019;-81
2023/04/01 12:38:52;;;;;;;2.67;1.52;;;;;;;;;;4953761;29;20035;-81
2023/04/01 12:41:27;;;;;;;3.97;1.85;;;;;;;;;;4959714;28;20030;-81
2023/04/01 12:43:53;;;;;;;2.05;1.73;;;;;;;;;;4943150;28;20027;-81
2023/04/01 12:46:38;;;;;;;3.55;1.73;;;;;;;;;;4952831;28;20039;-81
2023/04/01 12:49:04;;;;;;;2.58;1.75;;;;;;;;;;4959631;29;20114;-81
2023/04/01 12:51:38;;;;;;;3.55;1.20;;;;;;;;;;4957331;29;20134;-81
2023/04/01 12:54:04;;;;;;;4.78;1.92;;;;;;;;;;4954415;28;20049;-81
2023/04/01 12:56:53;;;;;;;11.52;1.58;;;;;;;;;;4939583;29;20024;-82
2023/04/01 12:59:37;;;;;;;2.00;1.25;;;;;;;;;;4955981;28;20037;-82
2023/04/01 13:02:14;;;;;;;3.13;1.58;;;;;;;;;;4966938;28;20030;-82
2023/04/01 13:04:53;;;;;;;1.95;1.63;;;;;;;;;;4957420;28;20019;-82
2023/04/01 13:07:29;;;;;;;2.03;1.60;;;;;;;;;;4949295;29;20039;-82
2023/04/01 13:10:13;;;;;;;2.28;1.40;;;;;;;;;;4934944;29;20521;-82
2023/04/01 13:12:54;;;;;;;1.95;1.40;;;;;;;;;;4965812;28;20035;-82
2023/04/01 13:15:26;;;;;;;1.42;1.33;;;;;;;;;;4959481;29;20063;-83
2023/04/01 13:18:30;;;;;;;1.67;1.58;;;;;;;;;;4964101;28;20038;-82
2023/04/01 13:21:08;;;;;;;2.75;1.48;;;;;;;;;;4886986;29;20415;-82
2023/04/01 13:23:52;;;;;;;1.75;1.45;;;;;;;;;;4880900;29;20083;-82
2023/04/01 13:26:35;;;;;;;3.35;1.20;;;;;;;;;;4932064;29;20053;-82
2023/04/01 13:29:04;;;;;;;2.42;2.00;;;;;;;;;;4960869;28;20027;-82
2023/04/01 13:31:30;;;;;;;1.55;1.25;;;;;;;;;;4961983;28;20038;-83
2023/04/01 13:33:56;;;;;;;3.53;1.60;;;;;;;;;;4946978;29;20474;-83
2023/04/01 13:36:25;;;;;;;1.48;1.00;;;;;;;;;;4944982;29;20430;-84
2023/04/01 13:39:07;;;;;;;1.35;1.20;;;;;;;;;;4942928;29;20031;-82
2023/04/01 13:41:51;;;;;;;2.35;1.27;;;;;;;;;;4972468;28;20035;-83
2023/04/01 13:44:43;;;;;;;1.77;1.40;;;;;;;;;;4971050;28;20015;-83
2023/04/01 13:47:22;;;;;;;2.53;0.80;;;;;;;;;;4964298;29;20066;-82
2023/04/01 13:50:17;;;;;;;2.95;1.55;;;;;;;;;;4970702;29;20027;-83
2023/04/01 13:53:02;;;;;;;2.50;1.58;;;;;;;;;;4936535;29;20044;-82
2023/04/01 13:55:35;;;;;;;2.58;1.30;;;;;;;;;;4926872;29;20032;-82
2023/04/01 13:58:04;;;;;;;1.58;1.33;;;;;;;;;;4922279;29;20024;-82
2023/04/01 14:00:30;;;;;;;2.35;1.30;;;;;;;;;;4916989;29;20027;-82
2023/04/01 14:02:56;;;;;;;2.40;1.08;;;;;;;;;;4912454;29;20111;-81
2023/04/01 14:05:31;;;;;;;2.25;1.88;;;;;;;;;;4915587;29;20028;-81
2023/04/01 14:08:01;;;;;;;4.22;1.65;;;;;;;;;;4915900;29;20032;-82
2023/04/01 14:10:36;;;;;;;4.85;1.98;;;;;;;;;;4918521;29;20056;-82
2023/04/01 14:13:08;;;;;;;6.00;1.77;;;;;;;;;;4910786;29;20035;-81
2023/04/01 14:15:34;;;;;;;6.97;2.03;;;;;;;;;;4921084;29;20024;-83
2023/04/01 14:18:00;;;;;;;3.17;1.20;;;;;;;;;;4929281;29;20020;-82
2023/04/01 14:20:30;;;;;;;2.45;1.40;;;;;;;;;;4933388;29;20084;-81
2023/04/01 14:22:59;;;;;;;1.75;1.45;;;;;;;;;;4930270;29;20027;-81
2023/04/01 14:25:44;;;;;;;3.58;1.67;;;;;;;;;;4924470;29;20407;-82
2023/04/01 14:28:16;;;;;;;4.57;2.10;;;;;;;;;;4921173;29;20032;-81
2023/04/01 14:30:51;;;;;;;4.32;1.80;;;;;;;;;;4923682;29;20107;-81
2023/04/01 14:33:20;;;;;;;2.63;1.10;;;;;;;;;;4928225;29;20043;-81
2023/04/01 14:36:13;;;;;;;3.53;1.58;;;;;;;;;;4931082;29;20064;-81
2023/04/01 14:38:39;;;;;;;5.05;2.03;;;;;;;;;;4929211;29;20024;-81
2023/04/01 14:41:11;;;;;;;1.75;1.20;;;;;;;;;;4926139;29;20399;-81
2023/04/01 14:43:40;;;;;;;1.38;1.27;;;;;;;;;;4924087;29;20020;-82
2023/04/01 14:46:09;;;;;;;1.30;0.95;;;;;;;;;;4922531;29;20040;-82
2023/04/01 14:48:40;;;;;;;1.83;1.13;;;;;;;;;;4917915;29;20478;-81
2023/04/01 14:51:29;;;;;;;2.33;1.50;;;;;;;;;;4916223;29;20499;-81
2023/04/01 14:54:06;;;;;;;2.38;1.60;;;;;;;;;;4923441;29;20044;-82
2023/04/01 14:56:38;;;;;;;2.58;1.33;;;;;;;;;;4934282;29;20028;-82
2023/04/01 14:59:08;;;;;;;3.15;2.08;;;;;;;;;;4933241;29;20568;-82
2023/04/01 15:01:53;;;;;;;1.67;1.10;;;;;;;;;;4922898;29;20036;-82
2023/04/01 15:04:38;;;;;;;2.40;1.63;;;;;;;;;;4934427;29;20023;-81
2023/04/01 15:07:13;;;;;;;1.70;1.35;;;;;;;;;;4934261;29;20031;-81
2023/04/01 15:10:01;;;;;;;3.80;1.73;;;;;;;;;;4932974;29;20020;-81
2023/04/01 15:12:27;;;;;;;1.92;1.38;;;;;;;;;;4934068;29;20517;-81